createdAt,value
2022-12-11T00:00:40.605Z,98.85
2022-12-11T00:03:12.759Z,83.47
2022-12-11T00:05:42.969Z,88.93
2022-12-11T00:08:10.804Z,95.75
2022-12-11T00:10:38.315Z,96.55
2022-12-11T00:13:05.735Z,87.07
2022-12-11T00:15:33.307Z,85.88
2022-12-11T00:18:00.889Z,94.55
2022-12-11T00:20:28.864Z,78.20
2022-12-11T00:22:56.238Z,101.30
2022-12-11T00:25:23.649Z,78.20
2022-12-11T00:27:53.583Z,82.75
2022-12-11T00:30:20.715Z,92.60
2022-12-11T00:32:47.896Z,93.28
2022-12-11T00:35:15.009Z,75.13
2022-12-11T00:37:42.315Z,93.68
2022-12-11T00:40:09.876Z,82.35
2022-12-11T00:42:37.644Z,84.28
2022-12-11T00:45:05.157Z,87.22
2022-12-11T00:47:32.738Z,87.32
2022-12-11T00:50:00.299Z,79.32
2022-12-11T00:52:27.655Z,79.47
2022-12-11T00:54:55.246Z,83.18
2022-12-11T00:57:23.052Z,92.55
2022-12-11T00:59:50.772Z,84.05
2022-12-11T01:02:18.176Z,95.47
2022-12-11T01:04:45.381Z,98.28
2022-12-11T01:07:19.585Z,79.30
2022-12-11T01:10:05.750Z,80.60
2022-12-11T01:12:32.912Z,97.00
2022-12-11T01:15:00.386Z,89.88
2022-12-11T01:17:28.060Z,96.35
2022-12-11T01:19:55.678Z,97.72
2022-12-11T01:22:25.850Z,110.07
2022-12-11T01:24:55.634Z,102.90
2022-12-11T01:27:26.270Z,108.20
2022-12-11T01:29:56.756Z,118.90
2022-12-11T01:32:27.637Z,112.70
2022-12-11T01:34:55.135Z,106.90
2022-12-11T01:37:24.799Z,123.20
2022-12-11T01:39:54.987Z,119.63
2022-12-11T01:42:22.174Z,115.35
2022-12-11T01:44:49.529Z,106.88
2022-12-11T01:47:17.640Z,102.57
2022-12-11T01:49:45.056Z,101.65
2022-12-11T01:52:16.219Z,93.75
2022-12-11T01:54:44.179Z,130.60
2022-12-11T01:57:12.663Z,115.82
2022-12-11T01:59:42.267Z,117.93
2022-12-11T02:02:12.798Z,104.45
2022-12-11T02:04:41.118Z,83.03
2022-12-11T02:07:08.618Z,87.88
2022-12-11T02:09:37.021Z,90.22
2022-12-11T02:12:08.039Z,77.45
2022-12-11T02:14:50.593Z,97.50
2022-12-11T02:17:18.123Z,104.72
2022-12-11T02:19:50.223Z,89.93
2022-12-11T02:22:25.959Z,103.45
2022-12-11T02:25:11.573Z,89.90
2022-12-11T02:27:42.135Z,78.65
2022-12-11T02:30:11.108Z,90.13
2022-12-11T02:32:47.150Z,85.05
2022-12-11T02:35:18.232Z,73.15
2022-12-11T02:37:48.150Z,97.93
2022-12-11T02:40:17.794Z,65.93
2022-12-11T02:42:47.675Z,81.55
2022-12-11T02:45:15.950Z,76.80
2022-12-11T02:47:45.763Z,82.82
2022-12-11T02:50:15.065Z,81.40
2022-12-11T02:52:43.238Z,73.40
2022-12-11T02:55:12.531Z,80.80
2022-12-11T02:57:55.738Z,68.45
2022-12-11T03:00:24.041Z,60.20
2022-12-11T03:02:51.168Z,63.65
2022-12-11T03:05:18.471Z,82.78
2022-12-11T03:07:45.648Z,60.45
2022-12-11T03:10:14.642Z,68.97
2022-12-11T03:12:47.065Z,70.32
2022-12-11T03:15:19.690Z,68.30
2022-12-11T03:17:57.383Z,64.45
2022-12-11T03:20:35.958Z,55.78
2022-12-11T03:23:08.131Z,63.67
2022-12-11T03:25:38.552Z,68.00
2022-12-11T03:28:11.539Z,60.53
2022-12-11T03:30:39.938Z,65.38
2022-12-11T03:33:12.706Z,60.15
2022-12-11T03:35:42.026Z,56.50
2022-12-11T03:38:11.067Z,66.07
2022-12-11T03:40:40.646Z,59.30
2022-12-11T03:43:08.095Z,53.63
2022-12-11T03:45:36.430Z,53.40
2022-12-11T03:48:04.063Z,53.40
2022-12-11T03:50:33.207Z,31.13
2022-12-11T03:53:01.478Z,41.60
2022-12-11T03:55:29.127Z,43.63
2022-12-11T03:57:56.191Z,40.90
2022-12-11T04:00:23.651Z,42.08
2022-12-11T04:03:13.685Z,43.13
2022-12-11T04:05:41.972Z,37.97
2022-12-11T04:08:09.285Z,43.47
2022-12-11T04:10:36.924Z,39.13
2022-12-11T04:13:04.961Z,37.92
2022-12-11T04:15:32.374Z,39.35
2022-12-11T04:18:18.355Z,36.67
2022-12-11T04:21:04.438Z,37.55
2022-12-11T04:23:50.993Z,33.95
2022-12-11T04:26:19.829Z,32.47
2022-12-11T04:28:47.979Z,32.58
2022-12-11T04:31:16.116Z,30.00
2022-12-11T04:33:43.470Z,31.02
2022-12-11T04:36:12.135Z,31.58
2022-12-11T04:38:39.259Z,33.10
2022-12-11T04:41:08.051Z,31.25
2022-12-11T04:43:35.247Z,30.73
2022-12-11T04:46:11.953Z,32.83
2022-12-11T04:48:39.550Z,31.73
2022-12-11T04:51:07.256Z,37.28
2022-12-11T04:53:35.072Z,35.95
2022-12-11T04:56:02.913Z,36.88
2022-12-11T04:58:30.194Z,31.70
2022-12-11T05:00:57.579Z,33.90
2022-12-11T05:03:25.104Z,37.67
2022-12-11T05:05:53.310Z,33.58
2022-12-11T05:08:21.563Z,33.85
2022-12-11T05:11:02.206Z,36.50
2022-12-11T05:13:29.905Z,32.83
2022-12-11T05:15:57.059Z,33.65
2022-12-11T05:18:25.151Z,32.42
2022-12-11T05:20:56.325Z,32.50
2022-12-11T05:23:27.082Z,29.33
2022-12-11T05:25:57.514Z,34.88
2022-12-11T05:28:26.007Z,33.97
2022-12-11T05:31:00.028Z,31.58
2022-12-11T05:33:27.615Z,35.40
2022-12-11T05:35:54.934Z,35.45
2022-12-11T05:38:22.918Z,35.97
2022-12-11T05:40:59.262Z,30.70
2022-12-11T05:43:27.222Z,32.47
2022-12-11T05:45:54.517Z,29.23
2022-12-11T05:48:22.925Z,34.70
2022-12-11T05:51:00.159Z,35.17
2022-12-11T05:53:27.818Z,30.52
2022-12-11T05:55:55.205Z,30.75
2022-12-11T05:58:22.435Z,36.35
2022-12-11T06:00:50.186Z,28.50
2022-12-11T06:03:17.526Z,36.35
2022-12-11T06:05:45.207Z,32.00
2022-12-11T06:08:12.582Z,38.83
2022-12-11T06:10:45.984Z,34.03
2022-12-11T06:13:13.149Z,35.70
2022-12-11T06:15:40.316Z,38.90
2022-12-11T06:18:07.543Z,34.60
2022-12-11T06:20:36.303Z,32.65
2022-12-11T06:23:03.963Z,33.08
2022-12-11T06:25:31.905Z,35.25
2022-12-11T06:27:59.607Z,39.05
2022-12-11T06:30:39.103Z,36.17
2022-12-11T06:33:07.226Z,35.20
2022-12-11T06:35:40.273Z,35.15
2022-12-11T06:38:09.695Z,38.42
2022-12-11T06:40:36.995Z,40.20
2022-12-11T06:43:04.112Z,41.55
2022-12-11T06:45:31.935Z,39.00
2022-12-11T06:47:59.430Z,39.60
2022-12-11T06:50:26.904Z,37.70
2022-12-11T06:53:00.340Z,33.22
2022-12-11T06:55:27.547Z,39.28
2022-12-11T06:57:54.730Z,37.50
2022-12-11T07:00:21.839Z,41.42
2022-12-11T07:02:54.510Z,41.17
2022-12-11T07:05:21.989Z,41.70
2022-12-11T07:07:49.170Z,42.20
2022-12-11T07:10:16.463Z,40.10
2022-12-11T07:12:43.729Z,41.92
2022-12-11T07:15:11.450Z,43.90
2022-12-11T07:17:38.674Z,39.95
2022-12-11T07:20:06.300Z,40.90
2022-12-11T07:22:33.761Z,36.22
2022-12-11T07:25:01.036Z,38.50
2022-12-11T07:27:33.280Z,36.05
2022-12-11T07:30:11.021Z,34.60
2022-12-11T07:32:38.246Z,35.08
2022-12-11T07:35:05.590Z,37.17
2022-12-11T07:37:35.672Z,34.95
2022-12-11T07:40:03.038Z,38.17
2022-12-11T07:42:30.438Z,37.63
2022-12-11T07:44:57.997Z,37.55
2022-12-11T07:47:26.083Z,36.60
2022-12-11T07:49:55.851Z,36.53
2022-12-11T07:52:23.188Z,41.83
2022-12-11T07:54:55.415Z,36.45
2022-12-11T07:57:25.918Z,35.88
2022-12-11T08:00:00.782Z,38.53
2022-12-11T08:02:35.579Z,38.10
2022-12-11T08:05:07.364Z,40.35
2022-12-11T08:07:39.802Z,46.00
2022-12-11T08:10:10.911Z,43.03
2022-12-11T08:12:38.309Z,41.65
2022-12-11T08:15:15.184Z,38.42
2022-12-11T08:17:42.695Z,37.17
2022-12-11T08:20:11.202Z,38.20
2022-12-11T08:22:38.665Z,44.00
2022-12-11T08:25:13.611Z,37.30
2022-12-11T08:27:51.577Z,34.40
2022-12-11T08:30:25.126Z,35.25
2022-12-11T08:33:01.839Z,37.38
2022-12-11T08:35:32.779Z,29.35
2022-12-11T08:38:00.396Z,33.72
2022-12-11T08:40:28.029Z,31.33
2022-12-11T08:43:03.114Z,31.88
2022-12-11T08:45:30.759Z,31.42
2022-12-11T08:47:59.445Z,26.88
2022-12-11T08:50:30.423Z,27.35
2022-12-11T08:52:58.767Z,33.50
2022-12-11T08:55:27.941Z,33.95
2022-12-11T08:57:59.638Z,27.30
2022-12-11T09:00:29.995Z,32.97
2022-12-11T09:02:58.639Z,33.63
2022-12-11T09:05:25.963Z,29.98
2022-12-11T09:07:59.129Z,28.13
2022-12-11T09:10:27.416Z,33.03
2022-12-11T09:13:09.413Z,31.40
2022-12-11T09:15:39.404Z,34.08
2022-12-11T09:21:08.318Z,29.38
2022-12-11T09:23:37.593Z,32.85
2022-12-11T09:26:06.383Z,33.00
2022-12-11T09:28:46.889Z,32.13
2022-12-11T09:31:24.161Z,32.13
2022-12-11T09:33:56.713Z,30.90
2022-12-11T09:36:24.281Z,31.40
2022-12-11T09:38:56.242Z,30.35
2022-12-11T09:41:26.737Z,32.67
2022-12-11T09:44:13.893Z,35.88
2022-12-11T09:46:43.888Z,30.50
2022-12-11T09:49:32.365Z,29.42
2022-12-11T09:52:10.004Z,33.53
2022-12-11T09:54:37.716Z,34.20
2022-12-11T09:57:20.345Z,36.05
2022-12-11T09:59:50.878Z,29.58
2022-12-11T10:02:36.959Z,31.30
2022-12-11T10:05:22.942Z,35.40
2022-12-11T10:08:10.104Z,33.28
2022-12-11T10:10:50.062Z,33.67
2022-12-11T10:13:43.109Z,32.40
2022-12-11T10:16:12.003Z,29.02
2022-12-11T10:18:40.066Z,38.03
2022-12-11T10:21:09.570Z,31.58
2022-12-11T10:24:04.513Z,31.17
2022-12-11T10:26:33.214Z,24.00
2022-12-11T10:29:01.680Z,33.28
2022-12-11T10:31:46.868Z,31.95
2022-12-11T10:34:17.081Z,27.17
2022-12-11T10:36:47.681Z,29.20
2022-12-11T10:39:25.833Z,25.70
2022-12-11T10:41:54.719Z,31.15
2022-12-11T10:44:29.001Z,30.42
2022-12-11T10:47:03.871Z,27.52
2022-12-11T10:49:32.866Z,24.90
2022-12-11T10:52:09.284Z,27.48
2022-12-11T10:54:38.203Z,26.05
2022-12-11T10:57:08.279Z,24.50
2022-12-11T10:59:41.948Z,24.13
2022-12-11T11:02:19.702Z,25.30
2022-12-11T11:05:07.977Z,23.65
2022-12-11T11:07:38.841Z,26.77
2022-12-11T11:10:06.155Z,25.38
2022-12-11T11:12:39.062Z,25.92
2022-12-11T11:15:08.793Z,27.42
2022-12-11T11:17:52.747Z,24.92
2022-12-11T11:20:24.259Z,26.48
2022-12-11T11:22:53.582Z,23.55
2022-12-11T11:25:25.817Z,28.35
2022-12-11T11:27:55.845Z,24.80
2022-12-11T11:30:25.935Z,24.20
2022-12-11T11:33:01.819Z,24.92
2022-12-11T11:35:30.697Z,21.55
2022-12-11T11:38:10.198Z,24.05
2022-12-11T11:40:48.252Z,26.20
2022-12-11T11:43:29.251Z,26.77
2022-12-11T11:46:20.130Z,26.92
2022-12-11T11:49:11.247Z,23.13
2022-12-11T11:51:40.719Z,23.10
2022-12-11T11:57:06.868Z,22.90
2022-12-11T11:59:56.759Z,23.98
2022-12-11T12:02:29.274Z,20.60
2022-12-11T12:05:00.147Z,25.23
2022-12-11T12:07:40.146Z,23.60
2022-12-11T12:10:26.529Z,24.02
2022-12-11T12:13:48.046Z,20.58
2022-12-11T12:16:43.826Z,26.50
2022-12-11T12:19:13.716Z,25.40
2022-12-11T12:21:44.869Z,23.63
2022-12-11T12:24:27.306Z,21.83
2022-12-11T12:26:59.543Z,21.05
2022-12-11T12:29:27.055Z,24.65
2022-12-11T12:32:00.845Z,21.73
2022-12-11T12:34:46.487Z,22.35
2022-12-11T12:37:13.647Z,24.55
2022-12-11T12:39:46.967Z,24.88
2022-12-11T12:42:22.137Z,23.30
2022-12-11T12:44:59.731Z,28.08
2022-12-11T12:47:28.773Z,28.40
2022-12-11T12:49:57.634Z,26.92
2022-12-11T12:52:31.620Z,24.25
2022-12-11T12:55:25.645Z,29.50
2022-12-11T12:58:01.889Z,31.40
2022-12-11T13:00:28.942Z,24.42
2022-12-11T13:03:02.775Z,32.15
2022-12-11T13:05:37.030Z,28.48
2022-12-11T13:08:05.647Z,27.35
2022-12-11T13:10:33.699Z,27.58
2022-12-11T13:13:01.863Z,28.40
2022-12-11T13:15:34.905Z,30.83
2022-12-11T13:18:04.110Z,29.50
2022-12-11T13:20:33.239Z,28.95
2022-12-11T13:23:06.656Z,29.88
2022-12-11T13:25:47.142Z,30.10
2022-12-11T13:28:40.731Z,33.05
2022-12-11T13:31:17.650Z,33.40
2022-12-11T13:33:55.947Z,29.17
2022-12-11T13:36:37.871Z,34.63
2022-12-11T13:39:17.306Z,33.55
2022-12-11T13:41:47.058Z,30.17
2022-12-11T13:44:20.963Z,35.58
2022-12-11T13:46:48.909Z,32.20
2022-12-11T13:49:36.183Z,29.67
2022-12-11T13:52:04.147Z,34.00
2022-12-11T13:54:33.224Z,35.72
2022-12-11T13:57:16.790Z,30.45
2022-12-11T13:59:49.690Z,38.15
2022-12-11T14:02:26.482Z,35.30
2022-12-11T14:05:21.457Z,31.73
2022-12-11T14:07:50.606Z,34.13
2022-12-11T14:10:23.939Z,30.67
2022-12-11T14:12:54.576Z,31.30
2022-12-11T14:15:22.230Z,33.92
2022-12-11T14:17:51.879Z,33.78
2022-12-11T14:20:28.503Z,29.30
2022-12-11T14:23:09.652Z,33.92
2022-12-11T14:25:38.809Z,39.78
2022-12-11T14:28:07.695Z,38.10
2022-12-11T14:30:36.635Z,36.58
2022-12-11T14:33:07.465Z,32.38
2022-12-11T14:35:39.148Z,38.83
2022-12-11T14:38:12.632Z,37.42
2022-12-11T14:40:46.964Z,35.70
2022-12-11T14:43:31.998Z,32.03
2022-12-11T14:46:01.763Z,32.72
2022-12-11T14:48:31.582Z,32.50
2022-12-11T14:51:01.155Z,33.10
2022-12-11T14:53:44.809Z,41.42
2022-12-11T14:56:18.074Z,36.25
2022-12-11T14:58:49.800Z,32.22
2022-12-11T15:01:25.062Z,33.28
2022-12-11T15:04:02.609Z,38.65
2022-12-11T15:06:31.348Z,30.42
2022-12-11T15:08:58.928Z,33.35
2022-12-11T15:11:31.807Z,31.35
2022-12-11T15:14:00.562Z,32.30
2022-12-11T15:16:29.223Z,33.80
2022-12-11T15:18:58.921Z,32.60
2022-12-11T15:21:30.773Z,36.25
2022-12-11T15:23:59.385Z,30.67
2022-12-11T15:26:41.121Z,35.33
2022-12-11T15:29:24.718Z,34.40
2022-12-11T15:32:14.799Z,35.85
2022-12-11T15:34:48.206Z,34.67
2022-12-11T15:37:19.902Z,33.80
2022-12-11T15:39:47.026Z,30.67
2022-12-11T15:42:20.798Z,32.97
2022-12-11T15:44:53.542Z,33.78
2022-12-11T15:47:25.119Z,34.60
2022-12-11T15:49:58.174Z,36.90
2022-12-11T15:52:27.760Z,38.97
2022-12-11T15:54:55.388Z,33.75
2022-12-11T15:57:24.711Z,35.70
2022-12-11T15:59:55.590Z,38.15
2022-12-11T16:02:24.508Z,36.33
2022-12-11T16:04:53.959Z,32.70
2022-12-11T16:07:25.777Z,29.00
2022-12-11T16:09:56.164Z,36.00
2022-12-11T16:12:25.907Z,35.85
2022-12-11T16:14:55.812Z,36.50
2022-12-11T16:17:23.791Z,37.92
2022-12-11T16:19:52.514Z,31.35
2022-12-11T16:22:19.847Z,30.65
2022-12-11T16:24:46.976Z,31.75
2022-12-11T16:27:18.611Z,32.85
2022-12-11T16:29:48.908Z,33.80
2022-12-11T16:32:22.769Z,32.15
2022-12-11T16:34:50.548Z,32.53
2022-12-11T16:37:17.818Z,30.77
2022-12-11T16:39:45.947Z,35.60
2022-12-11T16:42:13.327Z,33.60
2022-12-11T16:44:44.031Z,32.90
2022-12-11T16:47:13.626Z,30.67
2022-12-11T16:49:42.816Z,30.98
2022-12-11T16:52:10.633Z,31.52
2022-12-11T16:54:37.958Z,29.55
2022-12-11T16:57:05.687Z,30.58
2022-12-11T16:59:37.109Z,31.67
2022-12-11T17:02:05.318Z,26.17
2022-12-11T17:04:32.816Z,28.38
2022-12-11T17:06:59.977Z,26.83
2022-12-11T17:09:27.722Z,31.88
2022-12-11T17:11:56.905Z,31.60
2022-12-11T17:14:24.711Z,29.48
2022-12-11T17:16:54.368Z,32.10
2022-12-11T17:19:21.770Z,30.73
2022-12-11T17:21:51.655Z,26.50
2022-12-11T17:24:19.550Z,27.95
2022-12-11T17:26:47.981Z,29.50
2022-12-11T17:29:15.786Z,30.77
2022-12-11T17:31:43.578Z,31.30
2022-12-11T17:34:10.949Z,28.88
2022-12-11T17:36:38.803Z,31.45
2022-12-11T17:39:08.170Z,29.85
2022-12-11T17:41:35.751Z,29.80
2022-12-11T17:44:05.564Z,29.60
2022-12-11T17:46:32.726Z,34.35
2022-12-11T17:49:02.650Z,26.60
2022-12-11T17:51:29.906Z,30.15
2022-12-11T17:53:57.573Z,31.73
2022-12-11T17:56:25.535Z,30.13
2022-12-11T17:58:55.734Z,30.50
2022-12-11T18:01:32.181Z,30.80
2022-12-11T18:04:09.021Z,31.75
2022-12-11T18:06:37.613Z,29.52
2022-12-11T18:09:06.013Z,25.48
2022-12-11T18:11:33.509Z,25.85
2022-12-11T18:14:00.800Z,27.92
2022-12-11T18:16:29.897Z,23.23
2022-12-11T18:18:58.445Z,25.10
2022-12-11T18:21:31.948Z,23.77
2022-12-11T18:24:00.232Z,24.05
2022-12-11T18:26:28.192Z,24.13
2022-12-11T18:28:55.935Z,21.70
2022-12-11T18:31:24.264Z,19.83
2022-12-11T18:33:53.925Z,20.17
2022-12-11T18:36:22.754Z,18.63
2022-12-11T18:38:50.472Z,23.83
2022-12-11T18:41:18.754Z,25.10
2022-12-11T18:43:46.430Z,23.48
2022-12-11T18:46:15.053Z,21.42
2022-12-11T18:48:42.762Z,21.98
2022-12-11T18:51:11.321Z,19.33
2022-12-11T18:53:39.553Z,22.10
2022-12-11T18:56:10.989Z,23.30
2022-12-11T18:58:38.660Z,21.20
2022-12-11T19:01:07.734Z,22.50
2022-12-11T19:03:36.188Z,21.60
2022-12-11T19:06:13.777Z,23.13
2022-12-11T19:08:41.266Z,24.45
2022-12-11T19:11:08.878Z,18.55
2022-12-11T19:13:36.442Z,21.75
2022-12-11T19:16:04.223Z,20.52
2022-12-11T19:18:31.670Z,20.35
2022-12-11T19:21:08.466Z,21.23
2022-12-11T19:23:36.698Z,21.92
2022-12-11T19:26:04.439Z,19.83
2022-12-11T19:28:33.872Z,23.70
2022-12-11T19:31:02.954Z,21.08
2022-12-11T19:33:30.520Z,22.42
2022-12-11T19:36:01.975Z,18.60
2022-12-11T19:38:29.595Z,22.13
2022-12-11T19:40:57.210Z,22.75
2022-12-11T19:43:24.529Z,20.35
2022-12-11T19:45:58.590Z,22.55
2022-12-11T19:48:25.745Z,19.10
2022-12-11T19:50:56.238Z,22.30
2022-12-11T19:53:25.147Z,20.38
2022-12-11T19:55:56.344Z,20.95
2022-12-11T19:58:23.696Z,19.83
2022-12-11T20:00:50.922Z,21.60
2022-12-11T20:03:18.769Z,23.85
2022-12-11T20:05:45.961Z,18.77
2022-12-11T20:08:43.134Z,24.70
2022-12-11T20:11:11.581Z,21.00
2022-12-11T20:13:41.810Z,21.10
2022-12-11T20:16:10.561Z,19.67
2022-12-11T20:18:38.375Z,22.73
2022-12-11T20:21:06.695Z,22.80
2022-12-11T20:23:34.825Z,23.92
2022-12-11T20:26:08.893Z,21.35
2022-12-11T20:28:36.511Z,23.27
2022-12-11T20:31:05.170Z,24.45
2022-12-11T20:33:32.595Z,25.92
2022-12-11T20:36:07.311Z,23.77
2022-12-11T20:38:35.348Z,21.60
2022-12-11T20:41:03.011Z,23.48
2022-12-11T20:43:33.774Z,21.75
2022-12-11T20:46:01.336Z,23.45
2022-12-11T20:48:29.142Z,23.33
2022-12-11T20:51:00.238Z,25.95
2022-12-11T20:53:28.891Z,22.13
2022-12-11T20:55:56.256Z,23.67
2022-12-11T20:58:24.231Z,25.95
2022-12-11T21:00:57.757Z,23.88
2022-12-11T21:05:54.694Z,23.33
2022-12-11T21:08:24.214Z,23.02
2022-12-11T21:10:55.405Z,21.48
2022-12-11T21:13:25.907Z,25.45
2022-12-11T21:15:57.315Z,21.70
2022-12-11T21:18:45.326Z,22.88
2022-12-11T21:21:27.747Z,19.70
2022-12-11T21:23:55.159Z,20.42
2022-12-11T21:26:22.792Z,20.48
2022-12-11T21:28:50.289Z,21.83
2022-12-11T21:31:18.953Z,25.08
2022-12-11T21:33:46.820Z,21.90
2022-12-11T21:36:15.082Z,20.25
2022-12-11T21:38:43.749Z,24.08
2022-12-11T21:41:20.132Z,20.90
2022-12-11T21:45:25.525Z,22.77
2022-12-11T21:46:35.829Z,24.33
2022-12-11T21:49:03.310Z,24.77
2022-12-11T21:51:36.900Z,23.30
2022-12-11T21:54:07.420Z,22.27
2022-12-11T21:56:34.714Z,22.05
2022-12-11T21:59:01.922Z,22.42
2022-12-11T22:01:31.554Z,22.98
2022-12-11T22:03:59.219Z,20.25
2022-12-11T22:06:26.568Z,23.20
2022-12-11T22:08:54.002Z,20.08
2022-12-11T22:11:22.382Z,24.40
2022-12-11T22:13:49.694Z,32.22
2022-12-11T22:16:20.548Z,29.23
2022-12-11T22:18:47.927Z,20.48
2022-12-11T22:21:15.770Z,23.55
2022-12-11T22:23:43.790Z,22.05
2022-12-11T22:26:15.581Z,21.45
2022-12-11T22:28:42.823Z,24.38
2022-12-11T22:31:11.735Z,26.02
2022-12-11T22:33:39.189Z,21.92
2022-12-11T22:36:06.734Z,22.30
2022-12-11T22:38:35.069Z,23.00
2022-12-11T22:41:03.214Z,25.52
2022-12-11T22:43:30.466Z,25.80
2022-12-11T22:45:57.660Z,27.13
2022-12-11T22:48:27.465Z,26.35
2022-12-11T22:50:55.644Z,26.13
2022-12-11T22:53:26.053Z,23.98
2022-12-11T22:55:56.210Z,22.67
2022-12-11T22:58:23.557Z,21.40
2022-12-11T23:00:50.690Z,26.67
2022-12-11T23:03:17.814Z,25.58
2022-12-11T23:05:45.145Z,23.13
2022-12-11T23:08:12.514Z,22.13
2022-12-11T23:10:41.014Z,22.73
2022-12-11T23:13:08.790Z,22.05
2022-12-11T23:15:36.543Z,22.05
2022-12-11T23:18:03.941Z,26.95
2022-12-11T23:20:31.262Z,26.30
2022-12-11T23:22:58.542Z,22.33
2022-12-11T23:25:26.055Z,24.42
2022-12-11T23:27:56.597Z,25.13
2022-12-11T23:30:24.021Z,22.65
2022-12-11T23:32:53.299Z,24.33
2022-12-11T23:35:20.618Z,27.10
2022-12-11T23:37:47.964Z,22.70
2022-12-11T23:40:15.545Z,22.55
2022-12-11T23:42:42.946Z,26.10
2022-12-11T23:45:10.769Z,24.10
2022-12-11T23:47:38.115Z,27.27
2022-12-11T23:50:05.564Z,25.63
2022-12-11T23:52:32.655Z,22.95
2022-12-11T23:55:00.045Z,24.50
2022-12-11T23:57:27.555Z,27.70
2022-12-11T23:59:55.165Z,27.17
